Latest Weather Observations for Coolangatta

IDQ60801

Issued at 1:32 pm EST Thursday 17 August 2017 (issued every 30 minutes, with the page automatically refreshed every 10 minutes)

About weather observations | Map of weather stations | Latest weather observations for QLD | Other Formats
Station Details ID: 040717 Name: COOLANGATTA Lat: -28.17 Lon: 153.51 Height: 4.0 m
Data from the previous 72 hours. | See also: Recent months at Coolangatta
Date/Time
EST
Temp
°C
App
Temp
°C
Dew
Point
°C
Rel
Hum
%
Delta-T
°C
Wind Press
QNH
hPa
Press
MSL
hPa
Rain since
9am
mm
Dir  Spd
km/h
Gust
km/h
Spd
kts
Gust
kts
17/01:30pm 25.1 22.3 17.3 62 4.9 N 28 33 15 18 1007.6 1007.6 0.0
17/01:00pm 25.8 23.1 16.6 56 5.7 N 26 33 14 18 1007.7 1007.7 0.0
17/12:30pm 27.0 23.1 14.4 46 7.5 N 28 35 15 19 1008.0 1008.0 0.0
17/12:00pm 25.8 22.7 15.5 53 6.3 N 26 32 14 17 1008.6 1008.6 0.0
17/11:30am 26.3 22.4 14.4 48 7.1 N 28 32 15 17 1009.2 1009.2 0.0
17/11:00am 26.2 22.9 14.0 47 7.2 N 24 30 13 16 1009.8 1009.8 0.0
17/10:30am 25.2 21.8 13.7 49 6.8 N 24 30 13 16 1010.3 1010.3 0.0
17/10:00am 24.8 21.9 14.0 51 6.4 N 22 28 12 15 1010.7 1010.7 0.0
17/09:30am 23.8 20.9 15.0 57 5.3 N 24 30 13 16 1010.8 1010.8 0.0
17/09:00am 22.5 20.1 15.4 64 4.2 N 22 26 12 14 1011.0 1011.0 0.0
17/08:30am 21.8 18.9 15.2 66 3.9 N 24 28 13 15 1011.2 1011.2 0.0
17/08:00am 21.1 19.1 15.6 71 3.3 N 20 24 11 13 1011.1 1011.1 0.0
17/07:30am 20.3 17.6 15.7 75 2.7 N 24 28 13 15 1010.9 1010.9 0.0
17/07:00am 19.6 18.6 15.7 78 2.3 N 15 20 8 11 1010.9 1010.9 0.0
17/06:30am 18.3 19.0 16.1 87 1.3 N 7 13 4 7 1010.6 1010.6 0.0
17/06:00am 18.3 18.8 16.5 89 1.1 NNW 9 15 5 8 1010.2 1010.2 0.0
17/05:30am 18.6 18.5 16.9 90 1.0 N 13 17 7 9 1009.9 1009.9 0.0
17/05:00am 18.8 17.8 16.6 87 1.3 N 17 20 9 11 1009.7 1009.7 0.0
17/04:30am 18.8 18.5 17.3 91 0.9 N 15 17 8 9 1009.7 1009.7 0.0
17/04:00am 18.4 19.1 17.1 92 0.8 N 9 15 5 8 1009.8 1009.8 0.0
17/03:30am 18.3 19.5 16.8 91 0.9 NNW 6 11 3 6 1009.7 1009.7 0.0
17/03:00am 18.7 18.0 17.4 92 0.8 N 17 22 9 12 1009.5 1009.5 0.0
17/02:30am 18.7 18.6 17.0 90 1.0 NNW 13 19 7 10 1009.8 1009.8 0.0
17/02:00am 18.6 19.2 16.9 90 1.0 N 9 15 5 8 1010.0 1010.0 0.0
17/01:30am 18.8 19.2 17.3 91 0.9 NE 11 15 6 8 1010.4 1010.4 0.0
17/01:00am 19.0 19.2 17.7 92 0.8 NE 13 17 7 9 1010.5 1010.5 0.0
17/12:30am 19.1 19.3 17.6 91 0.9 NE 13 15 7 8 1010.6 1010.6 0.0
17/12:00am 19.5 19.8 18.0 91 0.9 NE 13 17 7 9 1010.8 1010.8 0.0
 
Date/Time
EST
Temp
°C
App
Temp
°C
Dew
Point
°C
Rel
Hum
%
Delta-T
°C
Wind Press
QNH
hPa
Press
MSL
hPa
Rain since
9am
mm
Dir  Spd
km/h
Gust
km/h
Spd
kts
Gust
kts
16/11:30pm 19.8 19.8 18.1 90 1.1 NNE 15 20 8 11 1010.8 1010.8 0.0
16/11:00pm 19.9 18.9 18.0 89 1.2 N 20 24 11 13 1010.7 1010.7 0.0
16/10:30pm 20.1 19.6 17.9 87 1.4 N 17 20 9 11 1010.9 1010.9 0.0
16/10:00pm 20.1 19.6 17.9 87 1.4 NNE 17 19 9 10 1011.0 1011.0 0.0
16/09:30pm 20.2 20.5 17.8 86 1.5 NNE 13 17 7 9 1011.0 1011.0 0.0
16/09:03pm 20.4 21.0 17.6 84 1.7 N 11 15 6 8 1010.8 1010.8 0.0
16/09:00pm 20.1 20.5 17.3 84 1.7 N 11 13 6 7 1010.8 1010.8 0.0
16/08:49pm 20.5 20.5 17.3 82 2.0 N 13 15 7 8 1010.6 1010.6 0.0
16/08:30pm 21.0 21.2 16.8 77 2.6 NNW 11 15 6 8 1010.6 1010.6 0.0
16/08:00pm 21.9 21.1 17.1 74 2.9 NW 17 26 9 14 1010.3 1010.3 0.0
16/07:30pm 22.0 20.9 17.2 74 2.9 NW 19 28 10 15 1009.9 1009.9 0.0
16/07:00pm 21.8 21.8 17.2 75 2.8 NW 13 20 7 11 1009.6 1009.6 0.0
16/06:30pm 21.7 21.7 17.1 75 2.8 NW 13 19 7 10 1009.3 1009.3 0.0
16/06:00pm 20.3 20.9 17.7 85 1.6 N 11 15 6 8 1008.9 1008.9 0.0
16/05:30pm 21.0 20.1 18.2 84 1.7 N 20 26 11 14 1008.4 1008.4 0.0
16/05:00pm 21.7 20.1 18.3 81 2.1 N 24 32 13 17 1008.3 1008.3 0.0
16/04:30pm 22.5 20.8 18.1 76 2.7 N 24 32 13 17 1008.0 1008.0 0.0
16/04:00pm 23.4 21.3 17.2 68 3.8 N 24 30 13 16 1007.7 1007.7 0.0
16/03:30pm 23.5 22.1 17.9 71 3.5 NNE 22 30 12 16 1007.8 1007.8 0.0
16/03:00pm 23.6 20.8 17.3 67 3.9 N 28 37 15 20 1008.0 1008.0 0.0
16/02:30pm 23.4 19.7 16.9 67 4.0 N 32 37 17 20 1008.3 1008.3 0.0
16/02:00pm 24.1 19.9 16.1 61 4.9 N 33 41 18 22 1008.5 1008.5 0.0
16/01:30pm 23.5 19.7 15.8 62 4.6 NNE 30 41 16 22 1009.0 1009.0 0.0
16/01:00pm 23.5 19.8 16.1 63 4.5 N 30 39 16 21 1009.4 1009.4 0.0
16/12:30pm 23.0 20.1 16.1 65 4.2 NE 26 35 14 19 1010.2 1010.2 0.0
16/12:00pm 22.8 19.3 15.4 63 4.4 NNE 28 35 15 19 1010.9 1010.9 0.0
16/11:30am 22.5 19.0 15.4 64 4.2 NNE 28 35 15 19 1011.8 1011.8 0.0
16/11:00am 22.3 18.4 15.6 66 4.0 N 30 35 16 19 1012.4 1012.4 0.0
16/10:30am 21.7 17.0 14.4 63 4.3 N 32 37 17 20 1013.1 1013.1 0.0
16/10:00am 21.7 17.9 14.8 65 4.1 N 28 33 15 18 1013.6 1013.6 0.0
16/09:30am 21.2 16.8 15.1 68 3.6 N 32 35 17 19 1013.7 1013.7 0.0
16/09:00am 21.2 16.1 11.8 55 5.2 NNW 30 41 16 22 1013.3 1013.3 0.0
16/08:30am 20.3 16.6 12.8 62 4.2 NNW 24 39 13 21 1013.6 1013.6 0.0
16/08:00am 19.5 15.4 11.5 60 4.4 NW 24 32 13 17 1013.7 1013.7 0.0
16/07:30am 18.6 15.2 11.4 63 3.9 NW 20 32 11 17 1013.5 1013.5 0.0
16/07:00am 17.8 14.3 10.2 61 4.0 NW 19 26 10 14 1013.5 1013.5 0.0
16/06:30am 17.2 14.3 9.6 61 4.0 N 15 20 8 11 1013.2 1013.2 0.0
16/06:00am 16.9 13.9 10.7 67 3.3 N 17 26 9 14 1013.0 1013.0 0.0
16/05:30am 16.8 13.6 10.0 64 3.6 NNW 17 22 9 12 1012.7 1012.7 0.0
16/05:00am 16.6 13.6 12.4 76 2.3 NNW 20 26 11 14 1012.5 1012.5 0.0
16/04:30am 16.3 14.0 13.0 81 1.8 N 17 20 9 11 1012.5 1012.5 0.0
16/04:00am 16.4 16.1 14.4 88 1.1 N 9 15 5 8 1012.7 1012.7 0.0
16/03:30am 16.6 15.8 14.1 85 1.4 N 11 15 6 8 1012.7 1012.7 0.0
16/03:00am 17.3 15.6 14.8 85 1.4 N 17 22 9 12 1013.0 1013.0 0.0
16/02:30am 17.4 15.0 13.9 80 2.0 NNW 19 26 10 14 1013.1 1013.1 0.0
16/02:00am 18.0 16.1 14.1 78 2.2 NNW 17 20 9 11 1013.4 1013.4 0.0
16/01:30am 18.3 15.7 13.8 75 2.6 NW 20 26 11 14 1013.7 1013.7 0.0
16/01:00am 16.9 14.4 11.2 69 3.1 N 15 20 8 11 1014.3 1014.3 0.0
16/12:30am 18.0 16.0 11.6 66 3.5 NNW 13 22 7 12 1014.7 1014.7 0.0
16/12:00am 17.5 16.3 11.5 68 3.3 NNW 9 13 5 7 1014.9 1014.9 0.0
 
Date/Time
EST
Temp
°C
App
Temp
°C
Dew
Point
°C
Rel
Hum
%
Delta-T
°C
Wind Press
QNH
hPa
Press
MSL
hPa
Rain since
9am
mm
Dir  Spd
km/h
Gust
km/h
Spd
kts
Gust
kts
15/11:30pm 18.2 17.4 13.9 76 2.5 NNW 11 15 6 8 1015.0 1015.0 0.0
15/11:00pm 18.8 17.5 15.7 82 1.8 NW 17 24 9 13 1014.9 1014.9 0.0
15/10:30pm 18.0 17.2 13.9 77 2.3 NNW 11 15 6 8 1015.2 1015.2 0.0
15/10:00pm 17.8 17.0 14.1 79 2.1 NW 11 13 6 7 1015.4 1015.4 0.0
15/09:30pm 18.2 17.0 13.9 76 2.5 NW 13 17 7 9 1015.3 1015.3 0.0
15/09:00pm 17.7 16.4 13.6 77 2.3 WNW 13 17 7 9 1015.4 1015.4 0.0
15/08:30pm 17.7 16.6 14.2 80 2.0 NW 13 15 7 8 1015.2 1015.2 0.0
15/08:00pm 17.7 17.4 14.4 81 1.9 WNW 9 13 5 7 1015.1 1015.1 0.0
15/07:30pm 18.0 17.4 14.5 80 2.0 WNW 11 13 6 7 1015.0 1015.0 0.0
15/07:00pm 19.3 18.9 15.2 77 2.4 NW 11 17 6 9 1014.8 1014.8 0.0
15/06:30pm 19.5 18.8 15.4 77 2.4 NNW 13 17 7 9 1014.8 1014.8 0.0
15/06:00pm 19.1 18.7 15.2 78 2.3 NW 11 13 6 7 1014.7 1014.7 0.0
15/05:30pm 19.8 18.9 14.8 73 2.9 NNW 13 17 7 9 1014.5 1014.5 0.0
15/05:00pm 20.5 19.3 15.1 71 3.2 NNW 15 19 8 10 1014.6 1014.6 0.0
15/04:30pm 21.6 20.8 15.0 66 3.9 N 13 17 7 9 1014.7 1014.7 0.0
15/04:00pm 21.9 20.8 14.3 62 4.4 NNE 13 17 7 9 1014.7 1014.7 0.0
15/03:30pm 22.1 20.4 13.7 59 4.9 NNE 15 20 8 11 1014.6 1014.6 0.0
15/03:00pm 22.1 20.5 12.9 56 5.3 NNE 13 19 7 10 1014.8 1014.8 0.0
15/02:30pm 22.8 20.3 12.4 52 5.9 NNE 17 20 9 11 1014.6 1014.6 0.0
15/02:00pm 22.4 19.4 11.8 51 5.9 NNE 19 20 10 11 1014.8 1014.8 0.0
15/01:30pm 23.1 20.1 10.5 45 6.9 NNE 17 20 9 11 1015.3 1015.3 0.0
15/01:00pm 22.8 19.7 8.9 41 7.4 NNE 15 20 8 11 1015.7 1015.7 0.0
15/12:30pm 23.2 19.5 8.1 38 8.0 NNE 17 24 9 13 1016.0 1016.0 0.0
15/12:00pm 22.8 19.9 8.1 39 7.7 N 13 17 7 9 1016.8 1016.8 0.0
15/11:30am 22.8 19.5 8.1 39 7.7 NNE 15 19 8 10 1017.4 1017.4 0.0
15/11:00am 22.8 20.2 7.8 38 7.8 N 11 15 6 8 1018.1 1018.1 0.0
15/10:30am 22.2 19.9 10.4 47 6.5 N 13 15 7 8 1018.3 1018.3 0.0
15/10:00am 21.3 18.4 6.4 38 7.5 N 11 15 6 8 1018.6 1018.6 0.0
15/09:30am 20.6 17.6 6.2 39 7.2 N 11 13 6 7 1018.8 1018.8 0.0
15/09:00am 19.2 17.2 8.8 51 5.4 N 9 13 5 7 1018.8 1018.8 0.0
15/08:30am 17.0 16.2 11.1 68 3.2 N 6 7 3 4 1018.8 1018.8 0.0
15/08:00am 14.1 14.1 12.3 89 1.0 SSW 4 7 2 4 1018.8 1018.8 0.0
15/07:30am 12.1 11.4 11.5 96 0.3 SW 6 7 3 4 1018.5 1018.5 0.0
15/07:00am 10.4 9.2 10.2 99 0.1 WSW 7 11 4 6 1018.2 1018.2 0.0
15/06:42am 9.4 8.9 9.3 99 0.0 SW 2 6 1 3 1017.9 1017.9 0.0
15/06:30am 8.9 7.9 8.8 99 0.0 SW 4 7 2 4 1017.9 1017.9 0.0
15/06:18am 8.6 8.3 8.5 99 0.0 CALM 0 0 0 0 1017.9 1017.9 0.0
15/06:11am 9.0 8.8 8.9 99 0.0 CALM 0 0 0 0 1018.0 1018.0 0.0
15/06:00am 9.5 9.4 9.4 99 0.0 CALM 0 0 0 0 1017.9 1017.9 0.0
15/05:30am 9.0 8.8 8.9 99 0.0 CALM 0 0 0 0 1017.7 1017.7 0.0
15/05:00am 9.5 9.4 9.4 99 0.0 CALM 0 0 0 0 1017.5 1017.5 0.0
15/04:46am 9.7 8.9 9.6 99 0.0 WSW 4 7 2 4 1017.3 1017.3 0.0
15/04:43am 10.1 9.0 10.0 99 0.1 SW 6 7 3 4 1017.3 1017.3 0.0
15/04:30am 10.2 9.5 10.1 99 0.1 SSW 4 7 2 4 1017.2 1017.2 0.0
15/04:00am 10.3 9.2 10.0 98 0.2 SSW 6 6 3 3 1017.0 1017.0 0.0
15/03:30am 10.2 10.2 9.9 98 0.2 CALM 0 0 0 0 1016.9 1016.9 0.0
15/03:00am 10.8 10.2 10.5 98 0.2 SW 4 9 2 5 1016.8 1016.8 0.0
15/02:30am 11.0 10.0 10.4 96 0.3 SW 6 7 3 4 1016.7 1016.7 0.0
15/02:00am 12.0 12.1 11.4 96 0.3 SW 2 7 1 4 1016.8 1016.8 0.0
15/01:30am 12.5 11.8 12.0 97 0.3 SW 7 9 4 5 1016.8 1016.8 0.0
15/01:00am 13.2 12.9 12.7 97 0.3 WSW 6 9 3 5 1016.9 1016.9 0.0
15/12:58am 13.0 12.6 12.4 96 0.3 WSW 6 9 3 5 1016.9 1016.9 0.0
15/12:44am 13.3 12.8 12.8 97 0.3 WSW 7 9 4 5 1017.0 1017.0 0.0
15/12:30am 13.5 13.1 13.0 97 0.3 WSW 7 11 4 6 1017.3 1017.3 0.0
15/12:04am 14.1 14.1 13.6 97 0.3 SW 6 7 3 4 1017.4 1017.4 0.0
15/12:00am 14.1 14.1 13.6 97 0.3 SW 6 7 3 4 1017.4 1017.4 0.0
 
Date/Time
EST
Temp
°C
App
Temp
°C
Dew
Point
°C
Rel
Hum
%
Delta-T
°C
Wind Press
QNH
hPa
Press
MSL
hPa
Rain since
9am
mm
Dir  Spd
km/h
Gust
km/h
Spd
kts
Gust
kts
14/11:30pm 13.7 13.0 13.1 96 0.3 WSW 9 11 5 6 1017.6 1017.6 0.0
14/11:00pm 13.8 13.0 13.0 95 0.4 WNW 9 11 5 6 1017.4 1017.4 0.0
14/10:30pm 14.5 14.1 14.0 97 0.3 WSW 9 11 5 6 1017.6 1017.6 0.0
14/10:00pm 14.1 14.0 13.3 95 0.4 WSW 6 7 3 4 1017.5 1017.5 0.0
14/09:30pm 14.0 13.6 13.1 94 0.5 WSW 7 9 4 5 1017.6 1017.6 0.0
14/09:00pm 15.3 15.4 14.5 95 0.5 WSW 7 9 4 5 1017.6 1017.6 0.0
14/08:30pm 15.3 15.3 14.2 93 0.6 WSW 7 9 4 5 1017.5 1017.5 0.0
14/08:00pm 15.8 15.5 14.5 92 0.7 WSW 9 11 5 6 1017.1 1017.1 0.0
14/07:30pm 16.1 16.2 14.5 90 0.9 WSW 7 9 4 5 1016.9 1016.9 0.0
14/07:00pm 17.1 17.2 15.4 90 1.0 W 9 11 5 6 1016.9 1016.9 0.0
14/06:30pm 18.0 18.2 15.8 87 1.3 NW 9 11 5 6 1016.5 1016.5 0.0
14/06:00pm 18.9 19.1 15.8 82 1.8 NNW 9 11 5 6 1016.3 1016.3 0.0
14/05:30pm 20.0 19.5 16.0 78 2.4 N 13 17 7 9 1016.2 1016.2 0.0
14/05:00pm 20.7 19.5 16.1 75 2.8 N 17 22 9 12 1015.8 1015.8 0.0
14/04:30pm 21.4 19.8 15.9 71 3.3 N 19 24 10 13 1015.6 1015.6 0.0
14/04:00pm 21.9 20.0 15.7 68 3.7 N 20 26 11 14 1015.5 1015.5 0.0
14/03:30pm 22.1 19.8 15.7 67 3.8 N 22 28 12 15 1015.3 1015.3 0.0
14/03:00pm 22.1 19.9 15.9 68 3.7 N 22 30 12 16 1015.4 1015.4 0.0
14/02:30pm 22.0 19.7 15.8 68 3.7 NNE 22 26 12 14 1015.6 1015.6 0.0
14/02:00pm 22.1 19.7 15.5 66 3.9 N 22 26 12 14 1016.1 1016.1 0.0

Other Formats:

Comma delimited format used in spreadsheet applications
http://www.bom.gov.au/fwo/IDQ60801/IDQ60801.94592.axf

JavaScript Object Notation format (JSON) in row-major order
http://www.bom.gov.au/fwo/IDQ60801/IDQ60801.94592.json